Time;durP1;ratioP1;P1;durP2;ratioP2;P2;SDS_P1;SDS_P2;PMS_P1;PMS_P2;Temp;Humidity;BMP_temperature;BMP_pressure;BME280_temperature;BME280_humidity;BME280_pressure;Samples;Min_cycle;Max_cycle;Signal;HPM_P1;HPM_P2
2023/04/20 00:00:33;;;;;;;3.70;3.07;;;10.10;1.00;;;;;;4941295;29;20622;-89
2023/04/20 00:03:13;;;;;;;7.20;3.73;;;9.70;1.00;;;;;;4926839;29;20181;-88
2023/04/20 00:05:41;;;;;;;8.37;3.80;;;9.90;99.90;;;;;;4921569;29;20200;-89
2023/04/20 00:08:07;;;;;;;6.37;3.53;;;9.90;99.90;;;;;;4952540;29;20669;-89
2023/04/20 00:10:38;;;;;;;6.07;3.50;;;9.90;1.00;;;;;;4921493;29;20185;-89
2023/04/20 00:13:04;;;;;;;5.37;3.70;;;9.90;1.00;;;;;;4922030;29;20189;-88
2023/04/20 00:15:37;;;;;;;6.83;3.33;;;9.90;99.90;;;;;;4939533;29;20196;-89
2023/04/20 00:18:04;;;;;;;6.60;3.50;;;9.90;1.00;;;;;;4938775;29;20181;-88
2023/04/20 00:20:35;;;;;;;7.20;3.73;;;9.80;21.40;;;;;;4923982;29;20268;-88
2023/04/20 00:23:01;;;;;;;4.30;3.27;;;9.70;1.00;;;;;;4940993;29;20199;-89
2023/04/20 00:25:29;;;;;;;6.27;3.40;;;9.80;39.50;;;;;;4938793;29;20172;-89
2023/04/20 00:27:55;;;;;;;5.37;3.47;;;9.70;1.00;;;;;;4938580;28;20192;-88
2023/04/20 00:30:21;;;;;;;5.97;3.90;;;9.60;1.00;;;;;;4938783;29;20196;-88
2023/04/20 00:32:53;;;;;;;5.63;3.20;;;9.60;99.90;;;;;;4955663;28;20306;-89
2023/04/20 00:35:22;;;;;;;4.53;3.07;;;9.60;1.00;;;;;;4937726;29;20272;-88
2023/04/20 00:37:54;;;;;;;5.40;3.40;;;9.60;1.00;;;;;;4954599;28;20200;-90
2023/04/20 00:40:20;;;;;;;4.50;3.20;;;9.60;1.00;;;;;;4938824;28;20188;-88
2023/04/20 00:42:47;;;;;;;4.90;2.90;;;9.60;1.00;;;;;;4938391;29;20200;-89
2023/04/20 00:45:13;;;;;;;5.20;3.50;;;9.60;99.90;;;;;;4958740;28;20180;-89
2023/04/20 00:47:39;;;;;;;6.07;3.50;;;9.50;99.90;;;;;;4951875;29;20215;-88
2023/04/20 00:50:06;;;;;;;4.97;3.53;;;9.50;99.90;;;;;;4945172;29;20187;-89
2023/04/20 00:52:33;;;;;;;5.57;3.30;;;9.50;99.90;;;;;;4966082;28;20192;-89
2023/04/20 00:54:59;;;;;;;7.17;3.23;;;9.40;1.00;;;;;;4994498;28;20195;-88
2023/04/20 00:57:26;;;;;;;3.90;3.10;;;9.40;1.00;;;;;;4979135;28;20168;-88
2023/04/20 00:59:55;;;;;;;6.10;3.00;;;9.40;1.00;;;;;;4986575;28;20199;-87
2023/04/20 01:02:21;;;;;;;6.33;3.63;;;9.30;1.00;;;;;;4954152;29;20660;-88
2023/04/20 01:04:47;;;;;;;5.17;3.23;;;9.30;2.60;;;;;;4990758;28;20192;-88
2023/04/20 01:07:14;;;;;;;6.40;3.57;;;9.20;99.90;;;;;;4986221;28;20188;-88
2023/04/20 01:09:40;;;;;;;5.77;3.20;;;9.20;1.00;;;;;;4977938;28;20189;-88
2023/04/20 01:12:08;;;;;;;4.73;3.00;;;9.10;99.90;;;;;;4960245;29;20215;-89
2023/04/20 01:14:34;;;;;;;5.03;2.97;;;9.10;65.30;;;;;;4955761;29;20188;-88
2023/04/20 01:17:03;;;;;;;4.93;3.13;;;9.00;99.90;;;;;;4957002;29;20180;-88
2023/04/20 01:19:30;;;;;;;9.67;3.27;;;9.00;99.90;;;;;;4955821;29;20172;-88
2023/04/20 01:21:57;;;;;;;7.97;3.27;;;9.00;1.00;;;;;;4955611;28;20236;-89
2023/04/20 01:24:23;;;;;;;7.63;3.20;;;9.00;1.00;;;;;;4918476;29;20188;-89
2023/04/20 01:26:49;;;;;;;8.10;3.40;;;8.90;1.00;;;;;;4935656;29;20181;-88
2023/04/20 01:29:17;;;;;;;4.93;3.00;;;9.00;1.00;;;;;;4919037;29;20184;-89
2023/04/20 01:31:43;;;;;;;5.47;3.73;;;9.00;1.00;;;;;;4936504;29;20227;-89
2023/04/20 01:34:12;;;;;;;8.73;3.57;;;9.10;1.00;;;;;;4919863;29;20272;-88
2023/04/20 01:36:40;;;;;;;9.93;3.40;;;8.90;1.00;;;;;;4952949;29;20199;-87
2023/04/20 01:39:07;;;;;;;6.03;3.20;;;8.80;99.90;;;;;;4938033;29;20185;-87
2023/04/20 01:41:34;;;;;;;4.40;3.00;;;8.80;1.00;;;;;;4919616;29;20184;-88
2023/04/20 01:44:02;;;;;;;5.93;3.43;;;8.70;99.90;;;;;;4918856;29;20251;-87
2023/04/20 01:46:28;;;;;;;9.37;3.50;;;8.60;99.90;;;;;;4918650;29;20233;-88
2023/04/20 01:48:54;;;;;;;5.47;3.33;;;8.60;99.90;;;;;;4920714;29;20185;-89
2023/04/20 01:51:22;;;;;;;6.90;3.27;;;8.80;1.00;;;;;;4936412;29;20216;-89
2023/04/20 01:53:48;;;;;;;6.77;3.77;;;8.80;1.00;;;;;;4918740;29;20198;-90
2023/04/20 01:56:14;;;;;;;7.17;3.93;;;8.70;1.00;;;;;;4936275;29;20177;-89
2023/04/20 01:58:39;;;;;;;5.63;3.53;;;8.70;99.90;;;;;;4919138;29;20586;-89
2023/04/20 02:01:05;;;;;;;6.03;3.43;;;8.60;1.00;;;;;;4935618;29;20182;-89
2023/04/20 02:03:31;;;;;;;4.97;3.43;;;8.60;99.90;;;;;;4952344;29;20539;-89
2023/04/20 02:05:57;;;;;;;6.87;3.43;;;8.60;1.00;;;;;;4973927;28;20256;-89
2023/04/20 02:08:23;;;;;;;5.17;3.47;;;8.20;99.90;;;;;;4979311;28;20184;-89
2023/04/20 02:10:49;;;;;;;4.27;3.10;;;8.50;99.90;;;;;;4980883;28;20199;-88
2023/04/20 02:13:14;;;;;;;5.50;3.20;;;8.60;1.00;;;;;;4956251;28;20187;-88
2023/04/20 02:15:40;;;;;;;5.57;3.63;;;8.40;1.00;;;;;;4958462;28;20173;-88
2023/04/20 02:18:06;;;;;;;7.40;3.30;;;8.40;1.00;;;;;;4978534;28;20636;-87
2023/04/20 02:20:31;;;;;;;6.43;3.40;;;8.60;1.00;;;;;;4980974;28;20176;-88
2023/04/20 02:22:57;;;;;;;6.13;3.57;;;8.30;1.00;;;;;;4965796;28;20192;-88
2023/04/20 02:25:26;;;;;;;7.10;3.47;;;8.30;1.00;;;;;;4965306;28;20210;-89
2023/04/20 02:27:52;;;;;;;6.93;3.13;;;8.20;1.00;;;;;;4973432;28;20180;-89
2023/04/20 02:30:18;;;;;;;6.77;3.30;;;8.20;1.00;;;;;;4979121;28;20219;-89
2023/04/20 02:32:44;;;;;;;10.17;4.13;;;8.20;1.50;;;;;;4960727;28;20215;-89
2023/04/20 02:35:10;;;;;;;4.53;3.03;;;8.10;4.40;;;;;;4977588;28;20175;-89
2023/04/20 02:37:36;;;;;;;6.60;3.40;;;8.20;1.00;;;;;;4960917;28;20327;-89
2023/04/20 02:40:01;;;;;;;7.33;3.60;;;8.10;1.00;;;;;;4974254;28;20187;-89
2023/04/20 02:42:27;;;;;;;5.47;3.20;;;8.10;99.90;;;;;;4973097;28;20302;-90
2023/04/20 02:44:52;;;;;;;5.30;3.10;;;8.10;99.90;;;;;;4972805;28;20699;-89
2023/04/20 02:47:19;;;;;;;4.83;3.43;;;8.00;99.90;;;;;;4964712;28;20199;-89
2023/04/20 02:49:46;;;;;;;5.13;3.20;;;8.00;99.90;;;;;;4983117;28;20209;-89
2023/04/20 02:52:12;;;;;;;5.97;3.60;;;8.00;99.90;;;;;;4982828;28;20231;-89
2023/04/20 02:54:38;;;;;;;8.20;3.80;;;8.00;99.90;;;;;;4965043;28;20192;-89
2023/04/20 02:57:03;;;;;;;6.33;3.47;;;8.00;99.90;;;;;;4971201;28;20199;-89
2023/04/20 02:59:40;;;;;;;6.50;4.07;;;8.00;1.00;;;;;;4998182;28;20168;-89
2023/04/20 03:02:16;;;;;;;7.60;3.60;;;8.00;99.90;;;;;;4960630;28;20231;-89
2023/04/20 03:04:42;;;;;;;6.10;3.37;;;8.00;99.90;;;;;;4987130;28;20188;-89
2023/04/20 03:07:08;;;;;;;7.33;3.50;;;8.00;99.90;;;;;;4977803;28;20202;-89
2023/04/20 03:09:37;;;;;;;7.00;3.80;;;8.10;99.90;;;;;;4980698;28;20220;-90
2023/04/20 03:12:08;;;;;;;5.60;3.00;;;8.10;96.40;;;;;;4970790;28;20215;-88
2023/04/20 03:14:46;;;;;;;5.93;3.70;;;8.10;1.00;;;;;;4974304;28;20194;-89
2023/04/20 03:17:12;;;;;;;5.00;3.37;;;8.00;58.00;;;;;;4977034;28;20213;-89
2023/04/20 03:19:59;;;;;;;6.50;3.27;;;8.00;1.00;;;;;;4959334;28;20719;-89
2023/04/20 03:23:14;;;;;;;5.07;2.83;;;7.90;1.00;;;;;;4975764;28;20211;-89
2023/04/20 03:30:16;;;;;;;5.07;3.03;;;7.80;1.00;;;;;;4923048;28;20180;-89
2023/04/20 03:33:32;;;;;;;;;;;;;;;;;;;;;
2023/04/20 04:17:48;;;;;;;;;;;;;;;;;;;;;
2023/04/20 04:21:00;;;;;;;5.83;2.90;;;7.40;1.00;;;;;;4905031;29;20180;-88
2023/04/20 04:23:41;;;;;;;7.63;3.47;;;7.30;1.00;;;;;;4940657;29;20690;-88
2023/04/20 04:26:34;;;;;;;4.60;2.63;;;7.30;1.00;;;;;;4921155;29;20199;-88
2023/04/20 04:36:26;;;;;;;;;;;;;;;;;;;;;
2023/04/20 04:39:45;;;;;;;5.73;2.77;;;7.40;1.00;;;;;;4786648;29;20190;-89
2023/04/20 04:45:24;;;;;;;5.57;3.10;;;7.40;1.00;;;;;;4876837;29;20208;-90
2023/04/20 04:48:27;;;;;;;3.43;2.57;;;7.30;1.00;;;;;;4861202;29;20192;-88
2023/04/20 04:54:51;;;;;;;4.90;2.93;;;7.30;77.50;;;;;;4860053;29;20200;-89
2023/04/20 04:57:53;;;;;;;6.37;2.90;;;7.40;99.90;;;;;;4844560;29;20195;-88
2023/04/20 05:00:49;;;;;;;4.67;2.70;;;7.30;99.90;;;;;;4857703;29;20196;-88
2023/04/20 05:07:10;;;;;;;6.30;3.37;;;7.40;99.90;;;;;;4859160;29;20230;-88
2023/04/20 05:10:59;;;;;;;6.47;3.10;;;7.40;99.90;;;;;;4845854;29;20188;-89
2023/04/20 05:14:14;;;;;;;6.17;3.17;;;7.40;99.90;;;;;;4773659;30;20210;-88
2023/04/20 05:17:52;;;;;;;;;;;;;;;;;;;;;
2023/04/20 05:20:36;;;;;;;5.00;2.70;;;7.40;99.90;;;;;;4783811;29;20239;-86
2023/04/20 05:27:41;;;;;;;5.13;2.90;;;7.60;99.90;;;;;;4718013;30;20189;-88
2023/04/20 05:36:56;;;;;;;5.13;3.10;;;7.60;1.00;;;;;;4744839;30;20620;-87
2023/04/20 05:39:41;;;;;;;7.17;3.40;;;7.60;1.00;;;;;;4727146;30;20616;-88
2023/04/20 05:42:44;;;;;;;5.10;2.90;;;7.60;1.00;;;;;;4773553;30;20286;-87
2023/04/20 05:45:25;;;;;;;3.67;2.60;;;7.60;1.00;;;;;;4774457;30;20201;-87
2023/04/20 06:01:08;;;;;;;6.57;3.50;;;7.90;1.00;;;;;;4958937;28;20203;-88
2023/04/20 06:04:24;;;;;;;;;;;;;;;;;;;;;
2023/04/20 06:07:10;;;;;;;6.53;3.83;;;8.00;1.00;;;;;;4953434;28;20194;-87
2023/04/20 06:10:00;;;;;;;10.00;3.60;;;8.00;1.00;;;;;;4960163;28;20184;-89
2023/04/20 06:19:35;;;;;;;5.50;3.03;;;8.10;1.00;;;;;;4913555;29;20186;-88
2023/04/20 06:22:31;;;;;;;6.90;3.17;;;8.10;1.00;;;;;;4883170;29;20194;-90
2023/04/20 06:28:47;;;;;;;8.57;4.60;;;8.20;1.00;;;;;;4900617;29;20186;-87
2023/04/20 06:31:15;;;;;;;10.37;3.73;;;8.10;1.00;;;;;;4888094;29;20242;-89
2023/04/20 06:33:44;;;;;;;5.73;3.60;;;8.20;1.00;;;;;;4924411;29;20188;-87
2023/04/20 06:36:30;;;;;;;7.40;3.47;;;8.20;1.00;;;;;;4945525;29;20182;-87
2023/04/20 06:39:12;;;;;;;7.53;3.70;;;8.20;1.00;;;;;;4977215;29;20176;-86
2023/04/20 06:41:55;;;;;;;9.07;4.97;;;8.20;1.00;;;;;;4950191;29;20196;-87
2023/04/20 06:44:28;;;;;;;6.17;4.47;;;8.20;1.00;;;;;;4942262;29;20220;-86
2023/04/20 06:46:54;;;;;;;6.17;4.23;;;8.30;1.00;;;;;;4941391;29;20180;-87
2023/04/20 06:49:23;;;;;;;4.47;3.33;;;8.30;1.00;;;;;;4940410;29;20181;-87
2023/04/20 06:51:49;;;;;;;4.33;3.33;;;8.20;1.00;;;;;;4940289;29;20288;-86
2023/04/20 06:54:29;;;;;;;9.33;3.97;;;8.00;1.00;;;;;;4939998;29;20559;-87
2023/04/20 06:57:49;;;;;;;6.40;4.10;;;8.00;1.00;;;;;;4940248;29;20199;-86
2023/04/20 07:03:47;;;;;;;8.50;4.60;;;8.20;1.00;;;;;;4976074;28;20217;-86
2023/04/20 07:06:19;;;;;;;5.80;4.40;;;8.10;1.00;;;;;;4960458;28;20596;-85
2023/04/20 07:08:47;;;;;;;6.40;4.53;;;8.10;1.00;;;;;;4961917;28;20184;-88
2023/04/20 07:11:13;;;;;;;9.43;4.50;;;8.10;1.00;;;;;;4973510;28;20211;-88
2023/04/20 07:13:42;;;;;;;8.20;4.30;;;8.10;1.00;;;;;;4981114;28;20179;-87
2023/04/20 07:16:15;;;;;;;5.97;4.20;;;8.10;1.00;;;;;;4986554;28;20188;-83
2023/04/20 07:18:41;;;;;;;10.07;5.13;;;8.10;1.00;;;;;;4978296;28;20695;-83
2023/04/20 07:21:06;;;;;;;8.60;5.07;;;8.10;1.00;;;;;;4977704;28;20183;-85
2023/04/20 07:23:32;;;;;;;7.50;4.70;;;8.20;1.00;;;;;;4960165;28;20183;-84
2023/04/20 07:25:58;;;;;;;7.23;4.60;;;8.30;1.00;;;;;;4958817;28;20194;-84
2023/04/20 07:28:24;;;;;;;6.53;4.83;;;8.10;1.00;;;;;;4965558;28;20238;-82
2023/04/20 07:30:49;;;;;;;9.63;4.80;;;8.30;1.00;;;;;;4968190;28;20199;-85
2023/04/20 07:33:15;;;;;;;6.37;4.40;;;8.10;1.00;;;;;;4960174;28;20186;-87
2023/04/20 07:35:41;;;;;;;6.57;4.60;;;8.10;1.00;;;;;;4959407;28;20184;-85
2023/04/20 07:38:07;;;;;;;7.83;5.10;;;8.00;1.00;;;;;;4958776;28;20247;-84
2023/04/20 07:40:35;;;;;;;7.90;5.13;;;7.90;1.00;;;;;;4976325;28;20160;-86
2023/04/20 07:43:01;;;;;;;7.27;4.80;;;8.00;1.00;;;;;;4959217;28;20698;-84
2023/04/20 07:45:29;;;;;;;8.70;4.87;;;7.90;1.00;;;;;;4976415;28;20180;-85
2023/04/20 07:47:56;;;;;;;7.20;4.97;;;7.90;1.00;;;;;;4976622;28;20168;-86
2023/04/20 07:50:22;;;;;;;8.30;5.70;;;8.00;1.00;;;;;;4959379;28;20183;-86
2023/04/20 07:52:47;;;;;;;8.90;5.30;;;7.90;1.00;;;;;;4975475;28;20561;-83
2023/04/20 07:55:16;;;;;;;7.37;4.73;;;8.00;1.00;;;;;;4968277;28;20187;-84
2023/04/20 07:57:41;;;;;;;9.17;5.47;;;8.10;1.00;;;;;;4960613;28;20180;-85
2023/04/20 08:00:08;;;;;;;9.77;5.73;;;8.00;1.00;;;;;;4978829;28;20669;-85
2023/04/20 08:02:37;;;;;;;8.90;5.10;;;8.10;1.00;;;;;;4976899;28;20183;-84
2023/04/20 08:05:03;;;;;;;8.60;5.07;;;8.10;1.00;;;;;;4958897;28;20238;-82
2023/04/20 08:07:30;;;;;;;9.33;5.20;;;8.10;1.00;;;;;;4957623;28;20188;-84
2023/04/20 08:09:56;;;;;;;6.93;5.57;;;8.10;1.00;;;;;;4975564;28;20656;-83
2023/04/20 08:12:22;;;;;;;8.83;5.47;;;8.20;1.00;;;;;;4975735;28;20267;-85
2023/04/20 08:14:50;;;;;;;9.70;6.10;;;8.20;1.00;;;;;;4975674;28;20179;-82
2023/04/20 08:17:16;;;;;;;6.83;4.10;;;8.20;1.00;;;;;;4974777;28;20629;-81
2023/04/20 08:19:41;;;;;;;9.67;5.43;;;8.40;1.00;;;;;;4973975;28;20217;-82
2023/04/20 08:22:07;;;;;;;7.73;4.70;;;8.10;1.00;;;;;;4958197;28;20648;-84
2023/04/20 08:24:33;;;;;;;12.93;6.10;;;8.20;1.00;;;;;;4973520;28;20644;-82
2023/04/20 08:27:03;;;;;;;10.70;5.63;;;8.20;1.00;;;;;;4974555;28;20234;-82
2023/04/20 08:29:29;;;;;;;7.97;5.40;;;8.20;1.00;;;;;;4957626;28;20191;-82
2023/04/20 08:31:58;;;;;;;6.97;5.03;;;8.30;1.00;;;;;;4957380;28;20223;-83
2023/04/20 08:34:24;;;;;;;7.93;4.53;;;8.40;1.00;;;;;;4962165;28;20190;-85
2023/04/20 08:36:52;;;;;;;8.03;4.47;;;8.40;1.00;;;;;;4969514;28;20187;-84
2023/04/20 08:39:26;;;;;;;6.33;4.47;;;8.30;1.00;;;;;;4966348;28;20199;-85
2023/04/20 08:41:54;;;;;;;7.97;4.80;;;8.30;1.00;;;;;;4959866;28;20628;-84
2023/04/20 08:44:21;;;;;;;10.27;5.07;;;8.40;1.00;;;;;;4976676;28;20168;-85
2023/04/20 08:46:48;;;;;;;7.87;4.70;;;8.50;1.00;;;;;;4957080;28;20190;-84
2023/04/20 08:49:19;;;;;;;7.50;5.63;;;8.50;1.00;;;;;;4957972;28;20591;-83
2023/04/20 08:51:46;;;;;;;8.27;5.50;;;8.60;1.00;;;;;;4957817;28;20211;-82
2023/04/20 08:54:15;;;;;;;7.93;5.60;;;8.60;1.00;;;;;;4974727;28;20207;-83
2023/04/20 08:56:44;;;;;;;15.67;5.03;;;8.80;1.00;;;;;;4960011;28;20190;-84
2023/04/20 08:59:13;;;;;;;6.63;5.27;;;8.80;1.00;;;;;;4962853;28;20214;-83
2023/04/20 09:01:42;;;;;;;10.20;5.03;;;8.90;1.00;;;;;;4979637;28;20625;-84
2023/04/20 09:04:21;;;;;;;8.23;4.83;;;8.80;1.00;;;;;;4963634;28;20294;-83
2023/04/20 09:06:53;;;;;;;9.10;5.90;;;8.80;1.00;;;;;;4965376;28;20203;-84
2023/04/20 09:09:21;;;;;;;8.30;4.93;;;8.70;1.00;;;;;;4961424;28;20215;-84
2023/04/20 09:11:58;;;;;;;8.00;5.70;;;8.80;1.00;;;;;;4960889;28;20277;-85
2023/04/20 09:14:23;;;;;;;8.03;5.60;;;8.80;1.00;;;;;;4958255;28;20195;-85
2023/04/20 09:16:59;;;;;;;8.20;5.87;;;8.90;1.00;;;;;;4989264;28;20479;-83
2023/04/20 09:19:29;;;;;;;9.10;5.63;;;8.90;1.00;;;;;;4972092;28;20175;-84
2023/04/20 09:22:02;;;;;;;10.43;6.33;;;9.00;1.00;;;;;;4979699;28;20179;-83
2023/04/20 09:24:33;;;;;;;5.83;4.47;;;9.00;1.00;;;;;;4983635;28;20179;-83
2023/04/20 09:27:02;;;;;;;8.83;5.47;;;8.90;1.00;;;;;;4975967;28;20180;-85
2023/04/20 09:29:31;;;;;;;8.37;5.60;;;8.90;1.00;;;;;;4959346;28;20194;-84
2023/04/20 09:31:57;;;;;;;5.97;4.97;;;9.00;1.00;;;;;;4975438;28;20322;-82
2023/04/20 09:34:24;;;;;;;7.47;5.20;;;9.00;1.00;;;;;;4959361;28;20191;-82
2023/04/20 09:36:53;;;;;;;10.07;5.40;;;9.30;1.00;;;;;;4957757;28;20239;-82
2023/04/20 09:39:22;;;;;;;9.90;5.60;;;9.60;1.00;;;;;;4962604;28;20255;-82
2023/04/20 09:41:59;;;;;;;8.97;5.73;;;9.80;1.00;;;;;;4956699;28;20244;-83
2023/04/20 09:44:25;;;;;;;7.13;5.50;;;10.00;1.00;;;;;;4974325;28;20176;-82
2023/04/20 09:46:51;;;;;;;8.00;5.33;;;10.10;1.00;;;;;;4974212;28;20206;-84
2023/04/20 09:49:18;;;;;;;7.53;5.70;;;10.20;1.00;;;;;;4957782;28;20195;-83
2023/04/20 09:51:44;;;;;;;7.03;5.40;;;10.00;1.00;;;;;;4957092;28;20315;-86
2023/04/20 09:54:11;;;;;;;9.30;5.27;;;10.00;1.00;;;;;;4959888;28;20191;-83
2023/04/20 09:56:38;;;;;;;9.40;6.10;;;9.90;1.00;;;;;;4959292;28;20197;-84
2023/04/20 09:59:05;;;;;;;11.70;6.10;;;9.80;1.00;;;;;;4974635;28;20194;-84
2023/04/20 10:01:35;;;;;;;11.00;5.50;;;9.70;1.00;;;;;;4957026;28;20558;-84
2023/04/20 10:04:07;;;;;;;7.90;5.57;;;9.70;1.00;;;;;;4973799;28;20663;-85
2023/04/20 10:06:35;;;;;;;8.77;5.17;;;9.60;1.00;;;;;;4956155;28;20187;-83
2023/04/20 10:09:19;;;;;;;7.03;3.10;;;9.60;1.00;;;;;;4974261;28;20179;-84
2023/04/20 10:11:45;;;;;;;5.83;4.07;;;9.50;1.00;;;;;;4973434;28;20884;-83
2023/04/20 10:14:23;;;;;;;7.17;4.83;;;9.40;1.00;;;;;;4971796;28;20198;-84
2023/04/20 10:17:00;;;;;;;8.83;5.00;;;9.40;1.00;;;;;;4974467;28;20176;-84
2023/04/20 10:19:37;;;;;;;7.30;4.77;;;9.60;1.00;;;;;;4974053;28;20183;-84
2023/04/20 10:22:03;;;;;;;6.73;4.97;;;9.60;1.00;;;;;;4956193;28;20176;-81
2023/04/20 10:24:30;;;;;;;6.17;4.40;;;9.60;1.00;;;;;;4972857;28;20180;-84
2023/04/20 10:26:57;;;;;;;7.17;4.83;;;9.60;1.00;;;;;;4956356;28;20187;-83
2023/04/20 10:29:24;;;;;;;6.30;4.47;;;9.70;1.00;;;;;;4973707;28;20175;-84
2023/04/20 10:31:52;;;;;;;6.90;4.63;;;9.60;1.00;;;;;;4970187;28;20306;-82
2023/04/20 10:34:30;;;;;;;5.67;4.50;;;9.60;1.00;;;;;;4976965;28;20179;-84
2023/04/20 10:37:07;;;;;;;8.40;5.00;;;9.70;1.00;;;;;;4983090;28;20180;-82
2023/04/20 10:39:44;;;;;;;5.83;4.50;;;9.80;1.00;;;;;;4967643;28;20186;-82
2023/04/20 10:42:09;;;;;;;5.67;4.00;;;9.60;1.00;;;;;;4961390;28;20194;-82
2023/04/20 10:44:45;;;;;;;5.47;4.17;;;9.60;1.00;;;;;;4960131;28;20184;-83
2023/04/20 10:47:13;;;;;;;6.93;4.83;;;9.70;1.00;;;;;;4961527;28;20194;-84
2023/04/20 10:49:39;;;;;;;7.63;4.47;;;9.70;1.00;;;;;;4960815;28;20188;-85
2023/04/20 10:52:08;;;;;;;10.40;5.17;;;9.70;1.00;;;;;;4963190;28;20310;-85
2023/04/20 10:54:38;;;;;;;5.43;3.97;;;9.80;1.00;;;;;;4964116;28;20222;-84
2023/04/20 10:57:05;;;;;;;8.60;4.47;;;9.80;1.00;;;;;;4980128;28;20211;-85
2023/04/20 10:59:33;;;;;;;6.30;3.83;;;9.70;1.00;;;;;;4962413;28;20250;-84
2023/04/20 11:02:06;;;;;;;7.87;4.23;;;9.70;1.00;;;;;;4961426;28;20180;-86
2023/04/20 11:04:35;;;;;;;7.23;4.20;;;9.70;1.00;;;;;;4961899;28;20199;-84
2023/04/20 11:07:06;;;;;;;9.33;3.60;;;9.60;1.00;;;;;;4960314;28;20188;-87
2023/04/20 11:09:33;;;;;;;7.60;4.33;;;9.60;1.00;;;;;;4960603;28;20191;-85
2023/04/20 11:12:03;;;;;;;7.43;4.37;;;9.50;1.00;;;;;;4960600;28;20254;-83
2023/04/20 11:14:30;;;;;;;5.53;3.80;;;9.50;1.00;;;;;;4977897;28;20184;-84
2023/04/20 11:16:56;;;;;;;7.97;3.57;;;9.50;1.00;;;;;;4961012;28;20262;-83
2023/04/20 11:19:27;;;;;;;6.93;4.80;;;9.50;1.00;;;;;;4987618;28;20172;-85
2023/04/20 11:21:55;;;;;;;7.63;4.93;;;9.40;1.00;;;;;;4993178;28;20190;-84
2023/04/20 11:24:26;;;;;;;7.77;4.60;;;9.50;1.00;;;;;;4992435;28;20207;-84
2023/04/20 11:27:03;;;;;;;9.60;5.30;;;9.60;1.00;;;;;;4970965;28;20203;-84
2023/04/20 11:29:35;;;;;;;6.70;5.13;;;9.70;1.00;;;;;;4986882;28;20612;-84
2023/04/20 11:32:08;;;;;;;8.33;5.07;;;9.80;1.00;;;;;;4971132;28;20218;-82
2023/04/20 11:34:35;;;;;;;8.73;4.90;;;9.80;1.00;;;;;;4979394;28;20490;-81
2023/04/20 11:37:06;;;;;;;7.60;4.73;;;9.90;1.00;;;;;;4962235;28;20198;-83
2023/04/20 11:39:32;;;;;;;6.53;4.83;;;10.00;1.00;;;;;;4960634;28;20655;-85
2023/04/20 11:42:03;;;;;;;8.33;5.13;;;10.00;1.00;;;;;;4977255;28;20614;-85
2023/04/20 11:44:29;;;;;;;8.63;5.03;;;9.90;1.00;;;;;;4962172;28;20187;-83
2023/04/20 11:47:00;;;;;;;5.50;4.40;;;9.80;1.00;;;;;;4983624;28;20258;-83
2023/04/20 11:49:28;;;;;;;7.00;4.07;;;9.70;1.00;;;;;;4962366;28;20242;-81
2023/04/20 11:51:54;;;;;;;5.07;4.17;;;9.80;1.00;;;;;;4958009;28;20238;-84
2023/04/20 11:54:21;;;;;;;5.43;4.33;;;9.90;1.00;;;;;;4958959;28;20180;-84
2023/04/20 11:56:46;;;;;;;6.60;4.67;;;9.80;1.00;;;;;;4959157;28;20179;-86
2023/04/20 11:59:19;;;;;;;6.73;4.40;;;9.90;1.00;;;;;;4960143;28;20278;-82
2023/04/20 12:01:46;;;;;;;5.97;4.23;;;10.00;1.00;;;;;;4959035;29;20228;-82
2023/04/20 12:04:15;;;;;;;5.40;4.03;;;10.00;1.00;;;;;;4940312;29;20212;-84
2023/04/20 12:06:42;;;;;;;7.93;4.40;;;10.00;1.00;;;;;;4959046;28;20626;-84
2023/04/20 12:09:07;;;;;;;8.43;4.40;;;10.10;1.00;;;;;;4958222;28;20195;-84
2023/04/20 12:11:33;;;;;;;7.03;5.20;;;10.20;1.00;;;;;;4958719;28;20219;-84
2023/04/20 12:14:03;;;;;;;7.07;5.17;;;10.20;1.00;;;;;;4975428;28;20648;-83
2023/04/20 12:16:29;;;;;;;4.97;4.43;;;10.40;1.00;;;;;;4958227;28;20207;-83
2023/04/20 12:18:55;;;;;;;6.43;4.70;;;10.60;1.00;;;;;;4975732;28;20180;-82
2023/04/20 12:21:21;;;;;;;5.33;4.83;;;10.50;1.00;;;;;;4977981;28;20263;-83
2023/04/20 12:23:50;;;;;;;6.47;4.70;;;10.50;1.00;;;;;;4977709;28;20187;-83
2023/04/20 12:26:16;;;;;;;8.83;5.27;;;10.60;1.00;;;;;;4969901;28;20214;-83
2023/04/20 12:28:44;;;;;;;7.17;5.17;;;10.60;1.00;;;;;;4976914;28;20256;-84
2023/04/20 12:31:09;;;;;;;6.47;5.23;;;10.70;1.00;;;;;;4982650;28;20750;-85
2023/04/20 12:33:42;;;;;;;7.33;5.87;;;10.60;1.00;;;;;;4977340;28;20184;-85
2023/04/20 12:36:08;;;;;;;5.63;4.90;;;10.50;1.00;;;;;;4975989;28;20635;-83
2023/04/20 12:38:35;;;;;;;5.97;5.37;;;10.50;1.00;;;;;;4958121;28;20211;-84
2023/04/20 12:41:03;;;;;;;7.17;5.33;;;10.60;1.00;;;;;;4958661;28;20218;-84
2023/04/20 12:43:30;;;;;;;6.40;4.93;;;10.60;1.00;;;;;;4975525;28;20186;-84
2023/04/20 12:45:56;;;;;;;6.00;5.40;;;10.60;1.00;;;;;;4958591;28;20199;-84
2023/04/20 12:48:21;;;;;;;5.57;4.80;;;10.60;1.00;;;;;;4977449;28;20226;-84
2023/04/20 12:50:47;;;;;;;5.47;4.53;;;10.60;1.00;;;;;;4975697;28;20184;-84
2023/04/20 12:53:13;;;;;;;7.53;4.67;;;10.50;1.00;;;;;;4958478;28;20223;-84
2023/04/20 12:55:39;;;;;;;8.73;5.27;;;10.50;1.00;;;;;;4976883;28;20194;-85
2023/04/20 12:58:07;;;;;;;8.37;4.90;;;10.40;1.00;;;;;;4976104;28;20179;-85
2023/04/20 13:00:43;;;;;;;5.90;4.97;;;10.40;1.00;;;;;;4957749;28;20188;-85
2023/04/20 13:03:09;;;;;;;7.63;5.20;;;10.40;1.00;;;;;;4956765;28;20206;-83
2023/04/20 13:05:35;;;;;;;7.77;5.40;;;10.40;1.00;;;;;;4957861;28;20192;-83
2023/04/20 13:08:00;;;;;;;8.73;5.63;;;10.40;1.00;;;;;;4958670;28;20242;-85
2023/04/20 13:10:27;;;;;;;7.37;5.30;;;10.60;1.00;;;;;;4975406;28;20179;-84
2023/04/20 13:12:53;;;;;;;6.63;5.20;;;10.70;1.00;;;;;;4939929;29;20224;-84
2023/04/20 13:15:21;;;;;;;6.57;5.53;;;10.60;1.00;;;;;;4939002;29;20229;-84
2023/04/20 13:17:47;;;;;;;5.63;4.53;;;10.50;1.00;;;;;;4955864;29;20188;-85
2023/04/20 13:20:13;;;;;;;6.47;5.00;;;10.50;1.00;;;;;;4956232;29;20199;-86
2023/04/20 13:22:39;;;;;;;7.10;5.07;;;10.50;1.00;;;;;;4948413;29;20192;-85
2023/04/20 13:25:08;;;;;;;7.50;5.13;;;10.50;1.00;;;;;;4939094;29;20237;-83
2023/04/20 13:27:34;;;;;;;7.43;5.70;;;10.50;1.00;;;;;;4943041;29;20223;-84
2023/04/20 13:29:59;;;;;;;8.13;5.73;;;10.20;1.00;;;;;;4973552;29;20192;-84
2023/04/20 13:32:26;;;;;;;6.80;5.70;;;10.10;1.00;;;;;;4947143;29;20228;-84
2023/04/20 13:34:52;;;;;;;8.47;6.40;;;9.80;1.00;;;;;;4958371;29;20595;-83
2023/04/20 13:37:18;;;;;;;6.90;6.17;;;9.80;1.00;;;;;;4943570;29;20239;-84
2023/04/20 13:39:44;;;;;;;7.57;6.77;;;9.50;1.00;;;;;;4945799;29;20189;-83
2023/04/20 13:42:10;;;;;;;7.13;6.10;;;9.20;1.00;;;;;;4939222;29;20246;-85
2023/04/20 13:44:35;;;;;;;6.80;5.90;;;9.10;1.00;;;;;;4938910;29;20188;-84
2023/04/20 13:47:01;;;;;;;7.67;6.70;;;9.00;1.00;;;;;;4938371;29;20238;-86
2023/04/20 13:49:27;;;;;;;8.57;7.23;;;8.80;1.00;;;;;;4938677;29;20224;-85
2023/04/20 13:51:53;;;;;;;9.03;7.40;;;8.70;3.80;;;;;;4939286;29;20721;-84
2023/04/20 13:54:19;;;;;;;9.93;8.10;;;8.70;7.70;;;;;;4961830;29;20596;-83
2023/04/20 13:56:45;;;;;;;12.30;7.43;;;8.70;10.40;;;;;;4960629;29;20187;-85
2023/04/20 13:59:11;;;;;;;8.93;7.93;;;8.80;15.80;;;;;;4941136;29;20612;-86
2023/04/20 14:01:37;;;;;;;9.37;8.27;;;8.90;16.40;;;;;;4956262;29;20267;-86
2023/04/20 14:04:04;;;;;;;9.87;8.57;;;8.90;15.00;;;;;;4970923;28;20233;-85
2023/04/20 14:06:29;;;;;;;8.93;7.90;;;9.00;15.90;;;;;;4959402;28;20279;-86
2023/04/20 14:08:55;;;;;;;9.17;7.93;;;9.00;14.60;;;;;;4975440;28;20188;-85
2023/04/20 14:11:22;;;;;;;8.40;7.60;;;9.10;13.70;;;;;;4943012;29;20228;-87
2023/04/20 14:13:49;;;;;;;9.20;8.30;;;9.10;9.40;;;;;;4956210;29;20196;-86
2023/04/20 14:16:15;;;;;;;8.70;7.50;;;9.20;10.60;;;;;;4942100;29;20341;-88
2023/04/20 14:18:41;;;;;;;11.03;8.37;;;9.50;13.10;;;;;;4965968;28;20212;-85
2023/04/20 14:21:07;;;;;;;9.63;8.43;;;9.70;1.00;;;;;;4977454;29;20173;-86
2023/04/20 14:23:33;;;;;;;8.60;7.70;;;9.90;1.00;;;;;;4963775;29;20188;-83
2023/04/20 14:25:59;;;;;;;8.47;7.60;;;10.10;1.00;;;;;;4944751;29;20540;-83
2023/04/20 14:28:24;;;;;;;9.23;7.80;;;10.20;1.00;;;;;;4942993;29;20196;-85
2023/04/20 14:30:50;;;;;;;8.87;7.97;;;10.20;1.00;;;;;;4964843;29;20700;-85
2023/04/20 14:33:16;;;;;;;8.33;7.40;;;10.40;1.00;;;;;;4942896;29;20220;-87
2023/04/20 14:35:42;;;;;;;6.23;5.60;;;10.20;1.00;;;;;;4942611;29;20712;-85
2023/04/20 14:38:09;;;;;;;7.53;6.73;;;10.40;1.00;;;;;;4958842;28;20199;-85
2023/04/20 14:40:35;;;;;;;8.70;7.70;;;10.60;1.00;;;;;;4961651;29;20180;-85
2023/04/20 14:43:01;;;;;;;6.90;6.20;;;10.70;1.00;;;;;;4951341;29;20195;-85
2023/04/20 14:45:28;;;;;;;7.00;6.30;;;10.80;1.00;;;;;;4971321;28;20188;-85
2023/04/20 14:47:55;;;;;;;7.37;6.53;;;10.50;1.00;;;;;;4968735;29;20184;-85
2023/04/20 14:50:27;;;;;;;7.77;6.97;;;10.50;1.00;;;;;;4971989;29;20204;-86
2023/04/20 14:52:54;;;;;;;7.60;6.83;;;10.60;1.00;;;;;;4965195;29;20220;-86
2023/04/20 14:55:24;;;;;;;9.53;7.43;;;10.50;1.00;;;;;;4946316;29;20187;-85
2023/04/20 14:57:55;;;;;;;8.07;7.27;;;10.60;1.00;;;;;;4963875;29;20272;-84
2023/04/20 15:00:22;;;;;;;7.03;6.30;;;10.60;1.00;;;;;;4944460;29;20228;-85
2023/04/20 15:02:49;;;;;;;6.87;5.80;;;10.50;1.00;;;;;;4942965;29;20200;-86
2023/04/20 15:05:15;;;;;;;7.40;6.53;;;10.40;1.00;;;;;;4942641;29;20188;-84
2023/04/20 15:07:42;;;;;;;7.23;5.40;;;10.50;1.00;;;;;;4941445;29;20184;-84